WJA642 CYYJ-CYHZ
Flight info
| Callsign | WJA642 |
|---|---|
| Flight time | N/A |
| Altitude | 37000 |
| Route | CYYJ PIBSO LIBOS VIDMA OMROK MLEXA OMVEV LOKRI ULBAR DUTIR LEROS MUSVI MITIK CYHZ |
| Aircraft | B738/L-V/N |
Departure
| Time | N/A |
|---|---|
| Airport | Victoria International Airport (CYYJ) |
Arrival
| Time | 2026-05-07 09:33 |
|---|---|
| Airport | Halifax / Stanfield International Airport (CYHZ) |
| Time | Latitude | Longitude | Altitude | Speed | Heading |
|---|---|---|---|---|---|
| 2026-05-07 04:33 | 48.89184 | -122.51295 | 13443 ft | 415 kts | 65° |
| 2026-05-07 04:33 | 48.90307 | -122.47176 | 13970 ft | 417 kts | 65° |
| 2026-05-07 04:33 | 48.91408 | -122.43135 | 14416 ft | 418 kts | 65° |
| 2026-05-07 04:33 | 48.92515 | -122.39065 | 14882 ft | 420 kts | 65° |
| 2026-05-07 04:34 | 48.93640 | -122.34919 | 15365 ft | 422 kts | 65° |
| 2026-05-07 04:34 | 48.94749 | -122.30827 | 15873 ft | 422 kts | 65° |
| 2026-05-07 04:34 | 48.95850 | -122.26754 | 16684 ft | 414 kts | 64° |
| 2026-05-07 04:34 | 48.96943 | -122.22694 | 17435 ft | 410 kts | 64° |
| 2026-05-07 04:35 | 48.98016 | -122.18708 | 18177 ft | 406 kts | 64° |
| 2026-05-07 04:35 | 48.99065 | -122.14801 | 18872 ft | 401 kts | 64° |
| 2026-05-07 04:35 | 49.00102 | -122.10940 | 19561 ft | 395 kts | 64° |
| 2026-05-07 04:35 | 49.01136 | -122.07086 | 20263 ft | 391 kts | 64° |
| 2026-05-07 04:36 | 49.02159 | -122.03269 | 20978 ft | 385 kts | 64° |
| 2026-05-07 04:36 | 49.03161 | -121.99523 | 21719 ft | 379 kts | 63° |
| 2026-05-07 04:36 | 49.04145 | -121.95834 | 22472 ft | 373 kts | 63° |
| 2026-05-07 04:36 | 49.05124 | -121.92163 | 23234 ft | 366 kts | 63° |
| 2026-05-07 04:37 | 49.06069 | -121.88608 | 23990 ft | 358 kts | 63° |
| 2026-05-07 04:37 | 49.06991 | -121.85139 | 24639 ft | 349 kts | 63° |
| 2026-05-07 04:37 | 49.07887 | -121.81756 | 25294 ft | 339 kts | 62° |
| 2026-05-07 04:37 | 49.08755 | -121.78470 | 25967 ft | 327 kts | 62° |
| 2026-05-07 04:38 | 49.09595 | -121.75289 | 26477 ft | 323 kts | 62° |
| 2026-05-07 04:38 | 49.10455 | -121.72060 | 26426 ft | 337 kts | 62° |
| 2026-05-07 04:38 | 49.11353 | -121.68703 | 26285 ft | 353 kts | 62° |
| 2026-05-07 04:38 | 49.12293 | -121.65172 | 26321 ft | 363 kts | 62° |
| 2026-05-07 04:39 | 49.13254 | -121.61541 | 26393 ft | 373 kts | 63° |
| 2026-05-07 04:39 | 49.14233 | -121.57830 | 26481 ft | 381 kts | 63° |
| 2026-05-07 04:39 | 49.15234 | -121.54013 | 26561 ft | 391 kts | 63° |
| 2026-05-07 04:39 | 49.16252 | -121.50123 | 26663 ft | 401 kts | 63° |
| 2026-05-07 04:40 | 49.17301 | -121.46106 | 26741 ft | 411 kts | 63° |
| 2026-05-07 04:40 | 49.18372 | -121.42002 | 26835 ft | 419 kts | 63° |
| 2026-05-07 04:40 | 49.19456 | -121.37836 | 26895 ft | 428 kts | 63° |
| 2026-05-07 04:40 | 49.20569 | -121.33551 | 26930 ft | 436 kts | 64° |
| 2026-05-07 04:41 | 49.21700 | -121.29188 | 27027 ft | 443 kts | 64° |
| 2026-05-07 04:41 | 49.22845 | -121.24765 | 27073 ft | 451 kts | 64° |
| 2026-05-07 04:41 | 49.23993 | -121.20319 | 27148 ft | 458 kts | 64° |
| 2026-05-07 04:41 | 49.25175 | -121.15734 | 27226 ft | 465 kts | 64° |
| 2026-05-07 04:42 | 49.26367 | -121.11097 | 27290 ft | 473 kts | 64° |
| 2026-05-07 04:42 | 49.27579 | -121.06377 | 27345 ft | 480 kts | 64° |
| 2026-05-07 04:42 | 49.28801 | -121.01610 | 27371 ft | 486 kts | 64° |
| 2026-05-07 04:42 | 49.30039 | -120.96766 | 27443 ft | 491 kts | 64° |
| 2026-05-07 04:43 | 49.31293 | -120.91852 | 27472 ft | 496 kts | 64° |
| 2026-05-07 04:43 | 49.32547 | -120.86921 | 27510 ft | 499 kts | 64° |
| 2026-05-07 04:43 | 49.33816 | -120.81923 | 27549 ft | 502 kts | 64° |
| 2026-05-07 04:43 | 49.35078 | -120.76940 | 27618 ft | 503 kts | 64° |
| 2026-05-07 04:44 | 49.36338 | -120.71950 | 27762 ft | 502 kts | 64° |
| 2026-05-07 04:44 | 49.37596 | -120.66953 | 27975 ft | 499 kts | 64° |
| 2026-05-07 04:44 | 49.38827 | -120.62044 | 28687 ft | 487 kts | 64° |
| 2026-05-07 04:44 | 49.40015 | -120.57290 | 29320 ft | 479 kts | 64° |
| 2026-05-07 04:45 | 49.41194 | -120.52570 | 29995 ft | 470 kts | 64° |
| 2026-05-07 04:45 | 49.42358 | -120.47910 | 30585 ft | 462 kts | 64° |
| 2026-05-07 04:45 | 49.43494 | -120.43357 | 31166 ft | 453 kts | 63° |
| 2026-05-07 04:45 | 49.44607 | -120.38885 | 31775 ft | 445 kts | 63° |
| 2026-05-07 04:46 | 49.45702 | -120.34481 | 32357 ft | 436 kts | 63° |
| 2026-05-07 04:46 | 49.46772 | -120.30172 | 32960 ft | 426 kts | 63° |
| 2026-05-07 04:46 | 49.47815 | -120.25955 | 33609 ft | 415 kts | 62° |
| 2026-05-07 04:46 | 49.48823 | -120.21873 | 34202 ft | 404 kts | 62° |
| 2026-05-07 04:47 | 49.49802 | -120.17898 | 34727 ft | 391 kts | 62° |
| 2026-05-07 04:47 | 49.50756 | -120.14014 | 35225 ft | 381 kts | 61° |
| 2026-05-07 04:47 | 49.52687 | -120.06246 | 34834 ft | 402 kts | 62° |
| 2026-05-07 04:48 | 49.53703 | -120.02166 | 34602 ft | 413 kts | 62° |
| 2026-05-07 04:48 | 49.54733 | -119.97994 | 34601 ft | 417 kts | 62° |
| 2026-05-07 04:48 | 49.55752 | -119.93818 | 34814 ft | 416 kts | 62° |
| 2026-05-07 04:48 | 49.56749 | -119.89715 | 34911 ft | 417 kts | 62° |
| 2026-05-07 04:49 | 49.58801 | -119.81258 | 34945 ft | 423 kts | 62° |
| 2026-05-07 04:49 | 49.60525 | -119.74142 | 34945 ft | 428 kts | 62° |
| 2026-05-07 04:50 | 49.62620 | -119.65458 | 34955 ft | 434 kts | 63° |
| 2026-05-07 04:50 | 49.64735 | -119.56666 | 34949 ft | 441 kts | 63° |
| 2026-05-07 04:51 | 49.66875 | -119.47728 | 34947 ft | 447 kts | 63° |
| 2026-05-07 04:51 | 49.69037 | -119.38660 | 34941 ft | 454 kts | 63° |
| 2026-05-07 04:52 | 49.71227 | -119.29438 | 34938 ft | 461 kts | 63° |
| 2026-05-07 04:52 | 49.73437 | -119.20087 | 34934 ft | 466 kts | 63° |
| 2026-05-07 04:53 | 49.75662 | -119.10630 | 34935 ft | 470 kts | 63° |
| 2026-05-07 04:53 | 49.77895 | -119.01096 | 34932 ft | 473 kts | 63° |
| 2026-05-07 04:54 | 49.80126 | -118.91532 | 34922 ft | 475 kts | 64° |
| 2026-05-07 04:54 | 49.82360 | -118.81904 | 34925 ft | 475 kts | 63° |
| 2026-05-07 04:55 | 49.84581 | -118.72293 | 34935 ft | 473 kts | 64° |
| 2026-05-07 04:55 | 49.86795 | -118.62670 | 34926 ft | 473 kts | 63° |
| 2026-05-07 04:56 | 49.88989 | -118.53099 | 34934 ft | 472 kts | 63° |
| 2026-05-07 04:56 | 49.91177 | -118.43510 | 34914 ft | 471 kts | 63° |
| 2026-05-07 04:57 | 49.93356 | -118.33905 | 34991 ft | 477 kts | 62° |
| 2026-05-07 04:57 | 49.95555 | -118.24180 | 35352 ft | 476 kts | 62° |
| 2026-05-07 04:58 | 49.96589 | -118.19584 | 35560 ft | 474 kts | 61° |
| 2026-05-07 04:58 | 49.97677 | -118.14740 | 35802 ft | 472 kts | 61° |
| 2026-05-07 04:58 | 49.98754 | -118.09931 | 36043 ft | 469 kts | 61° |
| 2026-05-07 04:58 | 49.99823 | -118.05146 | 36303 ft | 466 kts | 61° |
| 2026-05-07 04:59 | 50.00878 | -118.00418 | 36562 ft | 463 kts | 61° |
| 2026-05-07 04:59 | 50.01931 | -117.95688 | 36792 ft | 460 kts | 61° |
| 2026-05-07 04:59 | 50.02962 | -117.91053 | 36946 ft | 459 kts | 61° |
| 2026-05-07 04:59 | 50.04014 | -117.86329 | 36871 ft | 463 kts | 61° |
| 2026-05-07 05:00 | 50.06117 | -117.76851 | 36915 ft | 467 kts | 61° |
| 2026-05-07 05:00 | 50.08238 | -117.67235 | 36935 ft | 472 kts | 62° |
| 2026-05-07 05:01 | 50.10378 | -117.57467 | 36936 ft | 478 kts | 62° |
| 2026-05-07 05:01 | 50.12514 | -117.47653 | 36923 ft | 482 kts | 62° |
| 2026-05-07 05:02 | 50.14667 | -117.37723 | 36907 ft | 488 kts | 62° |
| 2026-05-07 05:02 | 50.16846 | -117.27635 | 36925 ft | 492 kts | 63° |
| 2026-05-07 05:03 | 50.19020 | -117.17515 | 36931 ft | 497 kts | 63° |
| 2026-05-07 05:03 | 50.21214 | -117.07246 | 36910 ft | 500 kts | 63° |
| 2026-05-07 05:04 | 50.23306 | -116.97388 | 36917 ft | 501 kts | 63° |
| 2026-05-07 05:04 | 50.25536 | -116.86838 | 36896 ft | 502 kts | 64° |
| 2026-05-07 05:05 | 50.27703 | -116.76545 | 36946 ft | 503 kts | 64° |
| 2026-05-07 05:05 | 50.29878 | -116.66155 | 36998 ft | 506 kts | 64° |
| 2026-05-07 05:06 | 50.32057 | -116.55693 | 36949 ft | 504 kts | 64° |
| 2026-05-07 05:06 | 50.34227 | -116.45227 | 36920 ft | 504 kts | 64° |
| 2026-05-07 05:07 | 50.36232 | -116.35487 | 36929 ft | 501 kts | 65° |
| 2026-05-07 05:07 | 50.38381 | -116.25017 | 36931 ft | 500 kts | 65° |
| 2026-05-07 05:08 | 50.40490 | -116.14697 | 36871 ft | 502 kts | 65° |
| 2026-05-07 05:08 | 50.42599 | -116.04301 | 36898 ft | 500 kts | 66° |
| 2026-05-07 05:09 | 50.44693 | -115.93920 | 36902 ft | 498 kts | 66° |
| 2026-05-07 05:09 | 50.46781 | -115.83529 | 36915 ft | 498 kts | 66° |
| 2026-05-07 05:10 | 50.48853 | -115.73161 | 36873 ft | 497 kts | 66° |
| 2026-05-07 05:10 | 50.50902 | -115.62848 | 36883 ft | 497 kts | 67° |
| 2026-05-07 05:11 | 50.52936 | -115.52560 | 36898 ft | 498 kts | 67° |
| 2026-05-07 05:11 | 50.54984 | -115.42140 | 36907 ft | 497 kts | 67° |
| 2026-05-07 05:12 | 50.57022 | -115.31724 | 36909 ft | 496 kts | 68° |
| 2026-05-07 05:12 | 50.58623 | -115.21151 | 36899 ft | 504 kts | 81° |
| 2026-05-07 05:13 | 50.58919 | -115.10070 | 36905 ft | 507 kts | 84° |
| 2026-05-07 05:13 | 50.59460 | -114.99068 | 36907 ft | 504 kts | 78° |
| 2026-05-07 05:14 | 50.60377 | -114.88152 | 36968 ft | 505 kts | 78° |
| 2026-05-07 05:14 | 50.61206 | -114.77132 | 36937 ft | 505 kts | 80° |
| 2026-05-07 05:15 | 50.61872 | -114.66460 | 36952 ft | 504 kts | 81° |
| 2026-05-07 05:15 | 50.62496 | -114.55515 | 36960 ft | 503 kts | 81° |
| 2026-05-07 05:16 | 50.63112 | -114.44501 | 36949 ft | 503 kts | 81° |
| 2026-05-07 05:16 | 50.63725 | -114.33543 | 36937 ft | 502 kts | 81° |
| 2026-05-07 05:17 | 50.64330 | -114.22609 | 36923 ft | 502 kts | 81° |
| 2026-05-07 05:17 | 50.64925 | -114.11679 | 36910 ft | 501 kts | 81° |
| 2026-05-07 05:18 | 50.65504 | -114.00742 | 36912 ft | 501 kts | 82° |
| 2026-05-07 05:18 | 50.66082 | -113.89770 | 36899 ft | 501 kts | 81° |
| 2026-05-07 05:19 | 50.66656 | -113.78818 | 36912 ft | 500 kts | 82° |
| 2026-05-07 05:19 | 50.67208 | -113.67970 | 36892 ft | 500 kts | 82° |
| 2026-05-07 05:20 | 50.67752 | -113.56995 | 36908 ft | 500 kts | 82° |
| 2026-05-07 05:20 | 50.68282 | -113.46095 | 36887 ft | 500 kts | 82° |
| 2026-05-07 05:21 | 50.69057 | -113.29740 | 36892 ft | 499 kts | 82° |
| 2026-05-07 05:22 | 50.69565 | -113.18837 | 36870 ft | 499 kts | 82° |
| 2026-05-07 05:22 | 50.70062 | -113.07905 | 36871 ft | 499 kts | 83° |
| 2026-05-07 05:23 | 50.70550 | -112.96924 | 36867 ft | 499 kts | 83° |
| 2026-05-07 05:23 | 50.71023 | -112.86079 | 36857 ft | 498 kts | 83° |
| 2026-05-07 05:24 | 50.71487 | -112.75167 | 36867 ft | 498 kts | 83° |
| 2026-05-07 05:24 | 50.71942 | -112.64255 | 36859 ft | 498 kts | 83° |
| 2026-05-07 05:25 | 50.72386 | -112.53366 | 36858 ft | 497 kts | 83° |
| 2026-05-07 05:25 | 50.72819 | -112.42467 | 36870 ft | 497 kts | 83° |
| 2026-05-07 05:26 | 50.73240 | -112.31573 | 36880 ft | 496 kts | 84° |
| 2026-05-07 05:26 | 50.73651 | -112.20766 | 36865 ft | 496 kts | 84° |
| 2026-05-07 05:27 | 50.74054 | -112.09896 | 36901 ft | 495 kts | 84° |
| 2026-05-07 05:27 | 50.74446 | -111.99042 | 36883 ft | 495 kts | 84° |
| 2026-05-07 05:28 | 50.74826 | -111.88199 | 36897 ft | 495 kts | 84° |
| 2026-05-07 05:28 | 50.75198 | -111.77319 | 36905 ft | 494 kts | 84° |
| 2026-05-07 05:29 | 50.75556 | -111.66549 | 36903 ft | 494 kts | 84° |
| 2026-05-07 05:29 | 50.75909 | -111.55636 | 36908 ft | 494 kts | 84° |
| 2026-05-07 05:30 | 50.76249 | -111.44798 | 36905 ft | 494 kts | 84° |
| 2026-05-07 05:30 | 50.76575 | -111.34071 | 36906 ft | 493 kts | 85° |
| 2026-05-07 05:31 | 50.76895 | -111.23232 | 36913 ft | 493 kts | 85° |
| 2026-05-07 05:31 | 50.77205 | -111.12395 | 36910 ft | 493 kts | 85° |
| 2026-05-07 05:32 | 50.77503 | -111.01634 | 36913 ft | 492 kts | 85° |
| 2026-05-07 05:32 | 50.77794 | -110.90750 | 36920 ft | 492 kts | 85° |
| 2026-05-07 05:33 | 50.78071 | -110.80005 | 36921 ft | 492 kts | 85° |
| 2026-05-07 05:33 | 50.78339 | -110.69268 | 36917 ft | 491 kts | 85° |
| 2026-05-07 05:34 | 50.78598 | -110.58434 | 36922 ft | 491 kts | 85° |
| 2026-05-07 05:34 | 50.78806 | -110.49466 | 36927 ft | 491 kts | 85° |
| 2026-05-07 05:35 | 50.79084 | -110.36926 | 36930 ft | 490 kts | 85° |
| 2026-05-07 05:35 | 50.79275 | -110.27970 | 36933 ft | 490 kts | 85° |
| 2026-05-07 05:36 | 50.79495 | -110.17204 | 36927 ft | 490 kts | 85° |
| 2026-05-07 05:36 | 50.79705 | -110.06438 | 36927 ft | 490 kts | 85° |
| 2026-05-07 05:37 | 50.79904 | -109.95736 | 36932 ft | 490 kts | 85° |
| 2026-05-07 05:37 | 50.80095 | -109.84958 | 36925 ft | 490 kts | 85° |
| 2026-05-07 05:38 | 50.80274 | -109.74249 | 36949 ft | 490 kts | 85° |
| 2026-05-07 05:38 | 50.80444 | -109.63494 | 36939 ft | 490 kts | 85° |
| 2026-05-07 05:39 | 50.80605 | -109.52733 | 36943 ft | 490 kts | 85° |
| 2026-05-07 05:39 | 50.80756 | -109.41965 | 36946 ft | 490 kts | 85° |
| 2026-05-07 05:40 | 50.80897 | -109.31208 | 36933 ft | 490 kts | 85° |
| 2026-05-07 05:40 | 50.81028 | -109.20397 | 36948 ft | 490 kts | 85° |
| 2026-05-07 05:41 | 50.81150 | -109.09618 | 36937 ft | 491 kts | 85° |
| 2026-05-07 05:41 | 50.81277 | -108.98788 | 36954 ft | 490 kts | 84° |
| 2026-05-07 05:42 | 50.81706 | -108.88046 | 36946 ft | 489 kts | 81° |
| 2026-05-07 05:42 | 50.82334 | -108.77403 | 36959 ft | 488 kts | 80° |
| 2026-05-07 05:43 | 50.82946 | -108.66667 | 36946 ft | 488 kts | 81° |
| 2026-05-07 05:43 | 50.83496 | -108.55960 | 36959 ft | 488 kts | 81° |
| 2026-05-07 05:44 | 50.84009 | -108.45333 | 36959 ft | 488 kts | 81° |
| 2026-05-07 05:44 | 50.84517 | -108.34547 | 36956 ft | 487 kts | 81° |
| 2026-05-07 05:45 | 50.85010 | -108.23916 | 36951 ft | 486 kts | 81° |
| 2026-05-07 05:45 | 50.85496 | -108.13268 | 36960 ft | 485 kts | 81° |
| 2026-05-07 05:46 | 50.85970 | -108.02696 | 36965 ft | 484 kts | 81° |
| 2026-05-07 05:46 | 50.86440 | -107.91986 | 36968 ft | 483 kts | 81° |
| 2026-05-07 05:47 | 50.86894 | -107.81430 | 36962 ft | 483 kts | 81° |
| 2026-05-07 05:47 | 50.87341 | -107.70803 | 36984 ft | 483 kts | 81° |
| 2026-05-07 05:48 | 50.87777 | -107.60204 | 36969 ft | 484 kts | 81° |
| 2026-05-07 05:48 | 50.88205 | -107.49538 | 36986 ft | 484 kts | 80° |
| 2026-05-07 05:49 | 50.88623 | -107.38914 | 36978 ft | 484 kts | 81° |
| 2026-05-07 05:49 | 50.89031 | -107.28299 | 36978 ft | 484 kts | 81° |
| 2026-05-07 05:50 | 50.89431 | -107.17615 | 36989 ft | 485 kts | 81° |
| 2026-05-07 05:50 | 50.89822 | -107.06931 | 36980 ft | 485 kts | 81° |
| 2026-05-07 05:51 | 50.90201 | -106.96271 | 36997 ft | 486 kts | 81° |
| 2026-05-07 05:51 | 50.90573 | -106.85563 | 37001 ft | 486 kts | 81° |
| 2026-05-07 05:52 | 50.90935 | -106.74844 | 36998 ft | 487 kts | 81° |
| 2026-05-07 05:52 | 50.91288 | -106.64116 | 37007 ft | 487 kts | 81° |
| 2026-05-07 05:53 | 50.91630 | -106.53402 | 37007 ft | 488 kts | 81° |
| 2026-05-07 05:53 | 50.91961 | -106.42716 | 37011 ft | 488 kts | 81° |
| 2026-05-07 05:54 | 50.92285 | -106.31964 | 37010 ft | 489 kts | 81° |
| 2026-05-07 05:54 | 50.92599 | -106.21187 | 37025 ft | 489 kts | 81° |
| 2026-05-07 05:55 | 50.92904 | -106.10425 | 37020 ft | 489 kts | 81° |
| 2026-05-07 05:55 | 50.93197 | -105.99702 | 37022 ft | 489 kts | 81° |
| 2026-05-07 05:56 | 50.93483 | -105.88847 | 37019 ft | 490 kts | 81° |
| 2026-05-07 05:56 | 50.93759 | -105.78048 | 37017 ft | 490 kts | 81° |
| 2026-05-07 05:57 | 50.94022 | -105.67327 | 37022 ft | 490 kts | 81° |
| 2026-05-07 05:57 | 50.94279 | -105.56458 | 37017 ft | 490 kts | 81° |
| 2026-05-07 05:58 | 50.94523 | -105.45706 | 37022 ft | 490 kts | 81° |
| 2026-05-07 05:58 | 50.94758 | -105.34929 | 37020 ft | 491 kts | 81° |
| 2026-05-07 05:59 | 50.94984 | -105.24084 | 37010 ft | 491 kts | 81° |
| 2026-05-07 05:59 | 50.95199 | -105.13283 | 37009 ft | 489 kts | 82° |
| 2026-05-07 06:00 | 50.95403 | -105.02504 | 37023 ft | 488 kts | 82° |
| 2026-05-07 06:00 | 50.95597 | -104.91767 | 37022 ft | 488 kts | 82° |
| 2026-05-07 06:01 | 50.95782 | -104.81044 | 37031 ft | 488 kts | 82° |
| 2026-05-07 06:01 | 50.95958 | -104.70259 | 37029 ft | 487 kts | 82° |
| 2026-05-07 06:02 | 50.96123 | -104.59511 | 37029 ft | 487 kts | 82° |
| 2026-05-07 06:02 | 50.96278 | -104.48749 | 37028 ft | 487 kts | 82° |
| 2026-05-07 06:03 | 50.96423 | -104.37996 | 37021 ft | 487 kts | 82° |
| 2026-05-07 06:03 | 50.96558 | -104.27257 | 37026 ft | 487 kts | 82° |
| 2026-05-07 06:04 | 50.96684 | -104.16525 | 37023 ft | 487 kts | 82° |
| 2026-05-07 06:04 | 50.96799 | -104.05756 | 37025 ft | 487 kts | 82° |
| 2026-05-07 06:05 | 50.96905 | -103.95014 | 37026 ft | 487 kts | 82° |
| 2026-05-07 06:05 | 50.97000 | -103.84322 | 37027 ft | 487 kts | 82° |
| 2026-05-07 06:06 | 50.97086 | -103.73565 | 37019 ft | 488 kts | 82° |
| 2026-05-07 06:06 | 50.97163 | -103.62803 | 37030 ft | 488 kts | 82° |
| 2026-05-07 06:07 | 50.97230 | -103.52030 | 37028 ft | 488 kts | 83° |
| 2026-05-07 06:07 | 50.97286 | -103.41285 | 37032 ft | 488 kts | 83° |
| 2026-05-07 06:08 | 50.97332 | -103.30465 | 37026 ft | 488 kts | 83° |
| 2026-05-07 06:08 | 50.97368 | -103.19765 | 37026 ft | 488 kts | 83° |
| 2026-05-07 06:09 | 50.97395 | -103.09038 | 37019 ft | 488 kts | 83° |
| 2026-05-07 06:09 | 50.97412 | -102.98220 | 37033 ft | 489 kts | 83° |
| 2026-05-07 06:10 | 50.97419 | -102.87438 | 37022 ft | 489 kts | 83° |
| 2026-05-07 06:10 | 50.97416 | -102.76617 | 37019 ft | 489 kts | 83° |
| 2026-05-07 06:11 | 50.97403 | -102.65877 | 37008 ft | 490 kts | 83° |
| 2026-05-07 06:11 | 50.97380 | -102.55058 | 37003 ft | 490 kts | 83° |
| 2026-05-07 06:12 | 50.97347 | -102.44226 | 36994 ft | 491 kts | 83° |
| 2026-05-07 06:12 | 50.97305 | -102.33437 | 36994 ft | 491 kts | 84° |
| 2026-05-07 06:13 | 50.97251 | -102.22575 | 36999 ft | 491 kts | 84° |
| 2026-05-07 06:13 | 50.97188 | -102.11754 | 37004 ft | 491 kts | 84° |
| 2026-05-07 06:14 | 50.97115 | -102.00897 | 36994 ft | 491 kts | 84° |
| 2026-05-07 06:14 | 50.97033 | -101.90105 | 37009 ft | 491 kts | 84° |
| 2026-05-07 06:15 | 50.96939 | -101.79266 | 37000 ft | 491 kts | 84° |
| 2026-05-07 06:15 | 50.96837 | -101.68435 | 37003 ft | 491 kts | 84° |
| 2026-05-07 06:16 | 50.96723 | -101.57556 | 37002 ft | 491 kts | 85° |
| 2026-05-07 06:16 | 50.96600 | -101.46745 | 37004 ft | 491 kts | 85° |
| 2026-05-07 06:17 | 50.96468 | -101.35941 | 37013 ft | 491 kts | 85° |
| 2026-05-07 06:17 | 50.96326 | -101.25096 | 37009 ft | 492 kts | 85° |
| 2026-05-07 06:18 | 50.96210 | -101.14253 | 37000 ft | 490 kts | 83° |
| 2026-05-07 06:18 | 50.96584 | -101.03631 | 37019 ft | 486 kts | 79° |
| 2026-05-07 06:19 | 50.97142 | -100.94581 | 37015 ft | 486 kts | 78° |
| 2026-05-07 06:19 | 50.97771 | -100.83976 | 37011 ft | 486 kts | 79° |
| 2026-05-07 06:20 | 50.98318 | -100.73274 | 37011 ft | 487 kts | 80° |
| 2026-05-07 06:20 | 50.98814 | -100.62557 | 37014 ft | 487 kts | 80° |
| 2026-05-07 06:21 | 50.99296 | -100.51814 | 37006 ft | 487 kts | 81° |
| 2026-05-07 06:21 | 50.99771 | -100.41077 | 36997 ft | 487 kts | 81° |
| 2026-05-07 06:22 | 51.00240 | -100.30320 | 36986 ft | 487 kts | 81° |
| 2026-05-07 06:22 | 51.00925 | -100.14222 | 36973 ft | 488 kts | 81° |
| 2026-05-07 06:23 | 51.01368 | -100.03496 | 36977 ft | 488 kts | 81° |
| 2026-05-07 06:23 | 51.01802 | -99.92772 | 36972 ft | 488 kts | 81° |
| 2026-05-07 06:24 | 51.02227 | -99.82022 | 36976 ft | 488 kts | 81° |
| 2026-05-07 06:24 | 51.02643 | -99.71228 | 37002 ft | 488 kts | 82° |
| 2026-05-07 06:25 | 51.03048 | -99.60457 | 37001 ft | 488 kts | 82° |
| 2026-05-07 06:25 | 51.03444 | -99.49696 | 37013 ft | 488 kts | 82° |
| 2026-05-07 06:26 | 51.03828 | -99.38952 | 37012 ft | 488 kts | 82° |
| 2026-05-07 06:26 | 51.04205 | -99.28154 | 37017 ft | 488 kts | 82° |
| 2026-05-07 06:27 | 51.04571 | -99.17371 | 37015 ft | 488 kts | 82° |
| 2026-05-07 06:27 | 51.04926 | -99.06613 | 37014 ft | 488 kts | 82° |
| 2026-05-07 06:28 | 51.05274 | -98.95796 | 37016 ft | 488 kts | 83° |
| 2026-05-07 06:28 | 51.05610 | -98.85034 | 37016 ft | 488 kts | 83° |
| 2026-05-07 06:29 | 51.05934 | -98.74298 | 37019 ft | 488 kts | 83° |
| 2026-05-07 06:29 | 51.06252 | -98.63462 | 37022 ft | 488 kts | 83° |
| 2026-05-07 06:30 | 51.06559 | -98.52664 | 37025 ft | 488 kts | 83° |
| 2026-05-07 06:30 | 51.06853 | -98.41956 | 37022 ft | 488 kts | 83° |
| 2026-05-07 06:31 | 51.07140 | -98.31160 | 37030 ft | 488 kts | 83° |
| 2026-05-07 06:31 | 51.07417 | -98.20362 | 37026 ft | 489 kts | 84° |
| 2026-05-07 06:32 | 51.07684 | -98.09556 | 37028 ft | 489 kts | 84° |
| 2026-05-07 06:32 | 51.07941 | -97.98759 | 37037 ft | 489 kts | 84° |
| 2026-05-07 06:33 | 51.08188 | -97.87965 | 37032 ft | 489 kts | 84° |
| 2026-05-07 06:33 | 51.08426 | -97.77115 | 37030 ft | 489 kts | 84° |
| 2026-05-07 06:34 | 51.08653 | -97.66302 | 37036 ft | 489 kts | 84° |
| 2026-05-07 06:34 | 51.08869 | -97.55577 | 37025 ft | 489 kts | 84° |
| 2026-05-07 06:35 | 51.09076 | -97.44767 | 37029 ft | 489 kts | 84° |
| 2026-05-07 06:35 | 51.09274 | -97.33908 | 37028 ft | 489 kts | 85° |
| 2026-05-07 06:36 | 51.09462 | -97.23058 | 37029 ft | 489 kts | 85° |
| 2026-05-07 06:36 | 51.09639 | -97.12249 | 37032 ft | 489 kts | 85° |
| 2026-05-07 06:37 | 51.09807 | -97.01412 | 37031 ft | 489 kts | 85° |
| 2026-05-07 06:37 | 51.09965 | -96.90558 | 37032 ft | 489 kts | 85° |
| 2026-05-07 06:38 | 51.10111 | -96.79804 | 37029 ft | 489 kts | 85° |
| 2026-05-07 06:38 | 51.10249 | -96.68970 | 37033 ft | 489 kts | 85° |
| 2026-05-07 06:39 | 51.10376 | -96.58144 | 37030 ft | 489 kts | 86° |
| 2026-05-07 06:39 | 51.10494 | -96.47327 | 37034 ft | 489 kts | 86° |
| 2026-05-07 06:40 | 51.10602 | -96.36463 | 37033 ft | 489 kts | 86° |
| 2026-05-07 06:40 | 51.10699 | -96.25668 | 37033 ft | 490 kts | 86° |
| 2026-05-07 06:41 | 51.10786 | -96.14816 | 37036 ft | 490 kts | 86° |
| 2026-05-07 06:41 | 51.10864 | -96.03969 | 37036 ft | 490 kts | 86° |
| 2026-05-07 06:42 | 51.10932 | -95.93141 | 37035 ft | 490 kts | 86° |
| 2026-05-07 06:42 | 51.10989 | -95.82266 | 37032 ft | 490 kts | 87° |
| 2026-05-07 06:43 | 51.11037 | -95.71467 | 37033 ft | 490 kts | 87° |
| 2026-05-07 06:43 | 51.11074 | -95.60630 | 37030 ft | 490 kts | 87° |
| 2026-05-07 06:44 | 51.11102 | -95.49746 | 37037 ft | 490 kts | 87° |
| 2026-05-07 06:44 | 51.11119 | -95.38869 | 37028 ft | 491 kts | 87° |
| 2026-05-07 06:45 | 51.11126 | -95.28105 | 37022 ft | 490 kts | 88° |
| 2026-05-07 06:45 | 51.11124 | -95.17250 | 37026 ft | 491 kts | 88° |
| 2026-05-07 06:46 | 51.11111 | -95.06405 | 37021 ft | 490 kts | 88° |
| 2026-05-07 06:46 | 51.11088 | -94.95519 | 37024 ft | 490 kts | 88° |
| 2026-05-07 06:47 | 51.11056 | -94.84688 | 37016 ft | 491 kts | 88° |
| 2026-05-07 06:47 | 51.11013 | -94.73827 | 37010 ft | 491 kts | 88° |
| 2026-05-07 06:48 | 51.10960 | -94.62978 | 37008 ft | 491 kts | 88° |
| 2026-05-07 06:48 | 51.10897 | -94.52112 | 37008 ft | 491 kts | 88° |
| 2026-05-07 06:49 | 51.10824 | -94.41253 | 37004 ft | 491 kts | 89° |
| 2026-05-07 06:49 | 51.10741 | -94.30381 | 36997 ft | 491 kts | 89° |
| 2026-05-07 06:50 | 51.10648 | -94.19490 | 36998 ft | 491 kts | 89° |
| 2026-05-07 06:50 | 51.10545 | -94.08635 | 36993 ft | 491 kts | 89° |
| 2026-05-07 06:51 | 51.10432 | -93.97816 | 36994 ft | 491 kts | 89° |
| 2026-05-07 06:51 | 51.10308 | -93.86881 | 36991 ft | 491 kts | 89° |
| 2026-05-07 06:52 | 51.10176 | -93.76110 | 37000 ft | 491 kts | 89° |
| 2026-05-07 06:52 | 51.10032 | -93.65231 | 36983 ft | 491 kts | 89° |
| 2026-05-07 06:53 | 51.09881 | -93.54353 | 36989 ft | 491 kts | 90° |
| 2026-05-07 06:53 | 51.09540 | -93.43554 | 36983 ft | 492 kts | 93° |
| 2026-05-07 06:54 | 51.08925 | -93.32671 | 36981 ft | 492 kts | 94° |
| 2026-05-07 06:54 | 51.08282 | -93.21852 | 36987 ft | 492 kts | 94° |
| 2026-05-07 06:55 | 51.07673 | -93.11081 | 36974 ft | 492 kts | 94° |
| 2026-05-07 06:55 | 51.07074 | -93.00222 | 36979 ft | 492 kts | 94° |
| 2026-05-07 06:56 | 51.06474 | -92.89415 | 36974 ft | 492 kts | 94° |
| 2026-05-07 06:56 | 51.05861 | -92.78595 | 36974 ft | 492 kts | 94° |
| 2026-05-07 06:57 | 51.05238 | -92.67809 | 36972 ft | 492 kts | 94° |
| 2026-05-07 06:57 | 51.04601 | -92.56967 | 36975 ft | 492 kts | 94° |
| 2026-05-07 06:58 | 51.03955 | -92.46140 | 36980 ft | 492 kts | 94° |
| 2026-05-07 06:58 | 51.03298 | -92.35300 | 36971 ft | 492 kts | 94° |
| 2026-05-07 06:59 | 51.02629 | -92.24429 | 36977 ft | 492 kts | 94° |
| 2026-05-07 06:59 | 51.01956 | -92.13663 | 36974 ft | 492 kts | 95° |
| 2026-05-07 07:00 | 51.01271 | -92.02871 | 36973 ft | 492 kts | 95° |
| 2026-05-07 07:00 | 51.00575 | -91.92061 | 36978 ft | 492 kts | 95° |
| 2026-05-07 07:01 | 50.99988 | -91.83060 | 36977 ft | 492 kts | 95° |
| 2026-05-07 07:01 | 50.99276 | -91.72289 | 36971 ft | 492 kts | 95° |
| 2026-05-07 07:02 | 50.98553 | -91.61505 | 36969 ft | 492 kts | 95° |
| 2026-05-07 07:02 | 50.97818 | -91.50697 | 36967 ft | 492 kts | 95° |
| 2026-05-07 07:03 | 50.97074 | -91.39896 | 36964 ft | 492 kts | 95° |
| 2026-05-07 07:03 | 50.96319 | -91.29100 | 36967 ft | 492 kts | 95° |
| 2026-05-07 07:04 | 50.95557 | -91.18346 | 36958 ft | 492 kts | 95° |
| 2026-05-07 07:04 | 50.94789 | -91.07639 | 36963 ft | 492 kts | 96° |
| 2026-05-07 07:05 | 50.94008 | -90.96894 | 36952 ft | 492 kts | 96° |
| 2026-05-07 07:05 | 50.93212 | -90.86089 | 36952 ft | 491 kts | 96° |
| 2026-05-07 07:06 | 50.92415 | -90.75399 | 36952 ft | 491 kts | 96° |
| 2026-05-07 07:06 | 50.91597 | -90.64569 | 36940 ft | 491 kts | 96° |
| 2026-05-07 07:07 | 50.90775 | -90.53830 | 36945 ft | 491 kts | 96° |
| 2026-05-07 07:07 | 50.89941 | -90.43059 | 36942 ft | 491 kts | 96° |
| 2026-05-07 07:08 | 50.89103 | -90.32366 | 36934 ft | 491 kts | 96° |
| 2026-05-07 07:08 | 50.88256 | -90.21688 | 36931 ft | 491 kts | 96° |
| 2026-05-07 07:09 | 50.87394 | -90.10943 | 36931 ft | 491 kts | 97° |
| 2026-05-07 07:09 | 50.86525 | -90.00243 | 36939 ft | 492 kts | 97° |
| 2026-05-07 07:10 | 50.85642 | -89.89489 | 36946 ft | 491 kts | 97° |
| 2026-05-07 07:10 | 50.84756 | -89.78828 | 36924 ft | 492 kts | 97° |
| 2026-05-07 07:11 | 50.83854 | -89.68095 | 36939 ft | 492 kts | 97° |
| 2026-05-07 07:11 | 50.82941 | -89.57361 | 36929 ft | 492 kts | 97° |
| 2026-05-07 07:12 | 50.82021 | -89.46654 | 36918 ft | 492 kts | 97° |
| 2026-05-07 07:12 | 50.81092 | -89.35964 | 36930 ft | 491 kts | 97° |
| 2026-05-07 07:13 | 50.80155 | -89.25295 | 36931 ft | 491 kts | 97° |
| 2026-05-07 07:13 | 50.79206 | -89.14604 | 36926 ft | 491 kts | 97° |
| 2026-05-07 07:14 | 50.78240 | -89.03841 | 36926 ft | 491 kts | 98° |
| 2026-05-07 07:14 | 50.77278 | -88.93229 | 36933 ft | 491 kts | 98° |
| 2026-05-07 07:15 | 50.76296 | -88.82512 | 36910 ft | 491 kts | 98° |
| 2026-05-07 07:15 | 50.75308 | -88.71844 | 36933 ft | 491 kts | 98° |
| 2026-05-07 07:16 | 50.74309 | -88.61170 | 36923 ft | 492 kts | 98° |
| 2026-05-07 07:16 | 50.73302 | -88.50512 | 36931 ft | 491 kts | 98° |
| 2026-05-07 07:17 | 50.72284 | -88.39847 | 36911 ft | 492 kts | 98° |
| 2026-05-07 07:17 | 50.71254 | -88.29166 | 36935 ft | 491 kts | 98° |
| 2026-05-07 07:18 | 50.70214 | -88.18484 | 36903 ft | 492 kts | 98° |
| 2026-05-07 07:18 | 50.69170 | -88.07866 | 36915 ft | 492 kts | 98° |
| 2026-05-07 07:19 | 50.68110 | -87.97186 | 36928 ft | 491 kts | 99° |
| 2026-05-07 07:19 | 50.67043 | -87.86538 | 36901 ft | 492 kts | 99° |
| 2026-05-07 07:20 | 50.65967 | -87.75905 | 36931 ft | 491 kts | 99° |
| 2026-05-07 07:20 | 50.64885 | -87.65318 | 36901 ft | 492 kts | 99° |
| 2026-05-07 07:21 | 50.63789 | -87.54687 | 36904 ft | 492 kts | 99° |
| 2026-05-07 07:21 | 50.62685 | -87.44074 | 36914 ft | 491 kts | 99° |
| 2026-05-07 07:22 | 50.61566 | -87.33419 | 36893 ft | 492 kts | 99° |
| 2026-05-07 07:22 | 50.60445 | -87.22837 | 36923 ft | 491 kts | 99° |
| 2026-05-07 07:23 | 50.59306 | -87.12187 | 36888 ft | 492 kts | 99° |
| 2026-05-07 07:23 | 50.58165 | -87.01615 | 36905 ft | 491 kts | 99° |
| 2026-05-07 07:24 | 50.57009 | -86.90993 | 36896 ft | 492 kts | 100° |
| 2026-05-07 07:24 | 50.55845 | -86.80394 | 36896 ft | 492 kts | 100° |
| 2026-05-07 07:25 | 50.54090 | -86.64588 | 36896 ft | 492 kts | 100° |
| 2026-05-07 07:26 | 50.52900 | -86.53987 | 36898 ft | 491 kts | 100° |
| 2026-05-07 07:26 | 50.51705 | -86.43428 | 36891 ft | 492 kts | 100° |
| 2026-05-07 07:27 | 50.50503 | -86.32894 | 36905 ft | 492 kts | 100° |
| 2026-05-07 07:27 | 50.49286 | -86.22319 | 36884 ft | 492 kts | 100° |
| 2026-05-07 07:28 | 50.48058 | -86.11735 | 36897 ft | 492 kts | 101° |
| 2026-05-07 07:28 | 50.46826 | -86.01217 | 36883 ft | 492 kts | 101° |
| 2026-05-07 07:29 | 50.45576 | -85.90621 | 36899 ft | 492 kts | 101° |
| 2026-05-07 07:29 | 50.44328 | -85.80127 | 36886 ft | 492 kts | 101° |
| 2026-05-07 07:30 | 50.43059 | -85.69551 | 36882 ft | 492 kts | 101° |
| 2026-05-07 07:30 | 50.41793 | -85.59077 | 36904 ft | 492 kts | 101° |
| 2026-05-07 07:31 | 50.40507 | -85.48527 | 36875 ft | 492 kts | 101° |
| 2026-05-07 07:31 | 50.39212 | -85.37984 | 36876 ft | 492 kts | 101° |
| 2026-05-07 07:32 | 50.37908 | -85.27448 | 36908 ft | 492 kts | 101° |
| 2026-05-07 07:32 | 50.36588 | -85.16870 | 36896 ft | 492 kts | 101° |
| 2026-05-07 07:33 | 50.35269 | -85.06383 | 36874 ft | 493 kts | 101° |
| 2026-05-07 07:33 | 50.33939 | -84.95890 | 36905 ft | 493 kts | 102° |
| 2026-05-07 07:34 | 50.32598 | -84.85388 | 36879 ft | 493 kts | 102° |
| 2026-05-07 07:34 | 50.31242 | -84.74844 | 36882 ft | 493 kts | 102° |
| 2026-05-07 07:35 | 50.29885 | -84.64379 | 36890 ft | 493 kts | 102° |
| 2026-05-07 07:35 | 50.28515 | -84.53895 | 36866 ft | 493 kts | 102° |
| 2026-05-07 07:36 | 50.27128 | -84.43353 | 36897 ft | 493 kts | 102° |
| 2026-05-07 07:36 | 50.25741 | -84.32887 | 36879 ft | 493 kts | 102° |
| 2026-05-07 07:37 | 50.24336 | -84.22372 | 36884 ft | 494 kts | 102° |
| 2026-05-07 07:37 | 50.22948 | -84.12052 | 36897 ft | 493 kts | 102° |
| 2026-05-07 07:38 | 50.21523 | -84.01536 | 36871 ft | 494 kts | 102° |
| 2026-05-07 07:38 | 50.20085 | -83.91001 | 36894 ft | 494 kts | 103° |
| 2026-05-07 07:39 | 50.18653 | -83.80581 | 36881 ft | 494 kts | 103° |
| 2026-05-07 07:39 | 50.17208 | -83.70142 | 36880 ft | 494 kts | 103° |
| 2026-05-07 07:40 | 50.15746 | -83.59662 | 36900 ft | 494 kts | 103° |
| 2026-05-07 07:40 | 50.14279 | -83.49209 | 36871 ft | 494 kts | 103° |
| 2026-05-07 07:41 | 50.12790 | -83.38680 | 36893 ft | 494 kts | 103° |
| 2026-05-07 07:41 | 50.11308 | -83.28275 | 36871 ft | 494 kts | 103° |
| 2026-05-07 07:42 | 50.09812 | -83.17837 | 36885 ft | 494 kts | 103° |
| 2026-05-07 07:42 | 50.08321 | -83.07509 | 36892 ft | 494 kts | 103° |
| 2026-05-07 07:43 | 50.06796 | -82.97016 | 36868 ft | 494 kts | 103° |
| 2026-05-07 07:43 | 50.05529 | -82.88353 | 36894 ft | 494 kts | 104° |
| 2026-05-07 07:44 | 50.03991 | -82.77901 | 36879 ft | 495 kts | 104° |
| 2026-05-07 07:44 | 50.02446 | -82.67473 | 36887 ft | 494 kts | 104° |
| 2026-05-07 07:45 | 50.00896 | -82.57078 | 36879 ft | 495 kts | 104° |
| 2026-05-07 07:45 | 49.99341 | -82.46719 | 36884 ft | 495 kts | 104° |
| 2026-05-07 07:46 | 49.97767 | -82.36302 | 36887 ft | 495 kts | 104° |
| 2026-05-07 07:46 | 49.96183 | -82.25887 | 36887 ft | 495 kts | 104° |
| 2026-05-07 07:47 | 49.94585 | -82.15450 | 36889 ft | 495 kts | 104° |
| 2026-05-07 07:47 | 49.92983 | -82.05059 | 36883 ft | 495 kts | 104° |
| 2026-05-07 07:48 | 49.91376 | -81.94697 | 36886 ft | 496 kts | 104° |
| 2026-05-07 07:48 | 49.89758 | -81.84330 | 36881 ft | 496 kts | 104° |
| 2026-05-07 07:49 | 49.88120 | -81.73904 | 36890 ft | 496 kts | 105° |
| 2026-05-07 07:49 | 49.86475 | -81.63499 | 36882 ft | 496 kts | 105° |
| 2026-05-07 07:50 | 49.84855 | -81.53317 | 36885 ft | 496 kts | 105° |
| 2026-05-07 07:50 | 49.83207 | -81.43020 | 36889 ft | 496 kts | 105° |
| 2026-05-07 07:51 | 49.81532 | -81.32617 | 36885 ft | 497 kts | 105° |
| 2026-05-07 07:51 | 49.79847 | -81.22222 | 36889 ft | 497 kts | 105° |
| 2026-05-07 07:52 | 49.78159 | -81.11873 | 36894 ft | 497 kts | 105° |
| 2026-05-07 07:52 | 49.76456 | -81.01495 | 36890 ft | 497 kts | 105° |
| 2026-05-07 07:53 | 49.74749 | -80.91156 | 36888 ft | 497 kts | 106° |
| 2026-05-07 07:53 | 49.73024 | -80.80772 | 36888 ft | 497 kts | 106° |
| 2026-05-07 07:54 | 49.71291 | -80.70402 | 36880 ft | 497 kts | 106° |
| 2026-05-07 07:54 | 49.69555 | -80.60079 | 36886 ft | 498 kts | 106° |
| 2026-05-07 07:55 | 49.67804 | -80.49726 | 36881 ft | 498 kts | 106° |
| 2026-05-07 07:55 | 49.66058 | -80.39464 | 36877 ft | 498 kts | 106° |
| 2026-05-07 07:56 | 49.64315 | -80.29279 | 36875 ft | 498 kts | 106° |
| 2026-05-07 07:56 | 49.62535 | -80.18944 | 36875 ft | 498 kts | 107° |
| 2026-05-07 07:57 | 49.60751 | -80.08639 | 36878 ft | 498 kts | 107° |
| 2026-05-07 07:57 | 49.58956 | -79.98335 | 36871 ft | 498 kts | 107° |
| 2026-05-07 07:58 | 49.57158 | -79.88072 | 36876 ft | 498 kts | 107° |
| 2026-05-07 07:58 | 49.55342 | -79.77766 | 36871 ft | 499 kts | 107° |
| 2026-05-07 07:59 | 49.53504 | -79.67400 | 36874 ft | 499 kts | 107° |
| 2026-05-07 07:59 | 49.51669 | -79.57106 | 36873 ft | 499 kts | 107° |
| 2026-05-07 08:00 | 49.49830 | -79.46851 | 36868 ft | 499 kts | 107° |
| 2026-05-07 08:00 | 49.47983 | -79.36604 | 36866 ft | 499 kts | 107° |
| 2026-05-07 08:01 | 49.46114 | -79.26300 | 36879 ft | 499 kts | 107° |
| 2026-05-07 08:01 | 49.44242 | -79.16030 | 36872 ft | 499 kts | 107° |
| 2026-05-07 08:02 | 49.42365 | -79.05794 | 36872 ft | 499 kts | 108° |
| 2026-05-07 08:02 | 49.40469 | -78.95518 | 36877 ft | 499 kts | 108° |
| 2026-05-07 08:03 | 49.38571 | -78.85279 | 36872 ft | 500 kts | 108° |
| 2026-05-07 08:03 | 49.36665 | -78.75061 | 36867 ft | 500 kts | 108° |
| 2026-05-07 08:04 | 49.34735 | -78.64765 | 36878 ft | 500 kts | 108° |
| 2026-05-07 08:04 | 49.32838 | -78.54704 | 36866 ft | 500 kts | 108° |
| 2026-05-07 08:05 | 49.30881 | -78.44378 | 36873 ft | 500 kts | 108° |
| 2026-05-07 08:05 | 49.28946 | -78.34223 | 36876 ft | 500 kts | 108° |
| 2026-05-07 08:06 | 49.27010 | -78.24120 | 36865 ft | 500 kts | 108° |
| 2026-05-07 08:06 | 49.25038 | -78.13881 | 36884 ft | 500 kts | 109° |
| 2026-05-07 08:07 | 49.23062 | -78.03680 | 36859 ft | 501 kts | 109° |
| 2026-05-07 08:07 | 49.21075 | -77.93474 | 36852 ft | 501 kts | 109° |
| 2026-05-07 08:08 | 49.19075 | -77.83259 | 36876 ft | 501 kts | 109° |
| 2026-05-07 08:08 | 49.17091 | -77.73175 | 36877 ft | 501 kts | 109° |
| 2026-05-07 08:09 | 49.15075 | -77.62985 | 36847 ft | 501 kts | 109° |
| 2026-05-07 08:09 | 49.13055 | -77.52828 | 36860 ft | 501 kts | 109° |
| 2026-05-07 08:10 | 49.11041 | -77.42751 | 36869 ft | 501 kts | 109° |
| 2026-05-07 08:10 | 49.09013 | -77.32655 | 36853 ft | 501 kts | 109° |
| 2026-05-07 08:11 | 49.06965 | -77.22515 | 36857 ft | 501 kts | 110° |
| 2026-05-07 08:11 | 49.04900 | -77.12344 | 36854 ft | 501 kts | 110° |
| 2026-05-07 08:12 | 49.02832 | -77.02209 | 36856 ft | 501 kts | 110° |
| 2026-05-07 08:12 | 49.00749 | -76.92056 | 36851 ft | 501 kts | 110° |
| 2026-05-07 08:13 | 48.98680 | -76.82017 | 36854 ft | 501 kts | 110° |
| 2026-05-07 08:13 | 48.96580 | -76.71883 | 36849 ft | 502 kts | 110° |
| 2026-05-07 08:14 | 48.94474 | -76.61770 | 36840 ft | 502 kts | 110° |
| 2026-05-07 08:14 | 48.92356 | -76.51647 | 36844 ft | 502 kts | 111° |
| 2026-05-07 08:15 | 48.90242 | -76.41600 | 36840 ft | 502 kts | 111° |
| 2026-05-07 08:15 | 48.88096 | -76.31448 | 36841 ft | 502 kts | 111° |
| 2026-05-07 08:16 | 48.85946 | -76.21328 | 36840 ft | 502 kts | 111° |
| 2026-05-07 08:16 | 48.83793 | -76.11245 | 36842 ft | 502 kts | 111° |
| 2026-05-07 08:17 | 48.81647 | -76.01241 | 36834 ft | 502 kts | 111° |
| 2026-05-07 08:17 | 48.79526 | -75.91406 | 36839 ft | 502 kts | 111° |
| 2026-05-07 08:18 | 48.77335 | -75.81292 | 36831 ft | 502 kts | 112° |
| 2026-05-07 08:18 | 48.75148 | -75.71246 | 36831 ft | 502 kts | 112° |
| 2026-05-07 08:19 | 48.72940 | -75.61154 | 36831 ft | 502 kts | 112° |
| 2026-05-07 08:19 | 48.70745 | -75.51170 | 36829 ft | 503 kts | 112° |
| 2026-05-07 08:20 | 48.68527 | -75.41127 | 36831 ft | 503 kts | 112° |
| 2026-05-07 08:20 | 48.66301 | -75.31101 | 36827 ft | 503 kts | 112° |
| 2026-05-07 08:21 | 48.64068 | -75.21085 | 36823 ft | 503 kts | 112° |
| 2026-05-07 08:21 | 48.61810 | -75.11012 | 36825 ft | 503 kts | 113° |
| 2026-05-07 08:22 | 48.59571 | -75.01064 | 36819 ft | 503 kts | 113° |
| 2026-05-07 08:22 | 48.57313 | -74.91084 | 36817 ft | 503 kts | 113° |
| 2026-05-07 08:23 | 48.55035 | -74.81062 | 36816 ft | 503 kts | 113° |
| 2026-05-07 08:23 | 48.52753 | -74.71071 | 36815 ft | 503 kts | 113° |
| 2026-05-07 08:24 | 48.50467 | -74.61107 | 36811 ft | 504 kts | 114° |
| 2026-05-07 08:24 | 48.48175 | -74.51164 | 36793 ft | 504 kts | 114° |
| 2026-05-07 08:25 | 48.45866 | -74.41190 | 36820 ft | 504 kts | 114° |
| 2026-05-07 08:25 | 48.43535 | -74.31173 | 36811 ft | 504 kts | 114° |
| 2026-05-07 08:26 | 48.40054 | -74.16295 | 36814 ft | 504 kts | 114° |
| 2026-05-07 08:26 | 48.37708 | -74.06330 | 36813 ft | 505 kts | 114° |
| 2026-05-07 08:27 | 48.35362 | -73.96405 | 36813 ft | 505 kts | 114° |
| 2026-05-07 08:27 | 48.32997 | -73.86449 | 36812 ft | 505 kts | 114° |
| 2026-05-07 08:28 | 48.31016 | -73.78143 | 36813 ft | 505 kts | 115° |
| 2026-05-07 08:28 | 48.28640 | -73.68223 | 36812 ft | 505 kts | 115° |
| 2026-05-07 08:29 | 48.26268 | -73.58362 | 36803 ft | 505 kts | 115° |
| 2026-05-07 08:29 | 48.23870 | -73.48435 | 36802 ft | 505 kts | 115° |
| 2026-05-07 08:30 | 48.21468 | -73.38543 | 36802 ft | 505 kts | 115° |
| 2026-05-07 08:30 | 48.19054 | -73.28641 | 36802 ft | 505 kts | 115° |
| 2026-05-07 08:31 | 48.16634 | -73.18760 | 36797 ft | 505 kts | 115° |
| 2026-05-07 08:31 | 48.14204 | -73.08882 | 36810 ft | 505 kts | 115° |
| 2026-05-07 08:32 | 48.11766 | -72.99015 | 36806 ft | 505 kts | 115° |
| 2026-05-07 08:32 | 48.09319 | -72.89158 | 36800 ft | 505 kts | 116° |
| 2026-05-07 08:33 | 48.06872 | -72.79339 | 36793 ft | 505 kts | 116° |
| 2026-05-07 08:33 | 48.04423 | -72.69558 | 36792 ft | 504 kts | 116° |
| 2026-05-07 08:34 | 48.01943 | -72.59695 | 36789 ft | 504 kts | 116° |
| 2026-05-07 08:34 | 47.99535 | -72.50162 | 36790 ft | 504 kts | 116° |
| 2026-05-07 08:35 | 47.97058 | -72.40393 | 36776 ft | 503 kts | 116° |
| 2026-05-07 08:35 | 47.94574 | -72.30642 | 36787 ft | 503 kts | 116° |
| 2026-05-07 08:36 | 47.92075 | -72.20871 | 36785 ft | 503 kts | 116° |
| 2026-05-07 08:36 | 47.89576 | -72.11144 | 36776 ft | 503 kts | 116° |
| 2026-05-07 08:37 | 47.87074 | -72.01449 | 36779 ft | 503 kts | 116° |
| 2026-05-07 08:37 | 47.84565 | -71.91765 | 36784 ft | 503 kts | 116° |
| 2026-05-07 08:38 | 47.82041 | -71.82062 | 36776 ft | 503 kts | 116° |
| 2026-05-07 08:38 | 47.79499 | -71.72331 | 36769 ft | 503 kts | 116° |
| 2026-05-07 08:39 | 47.76955 | -71.62636 | 36768 ft | 503 kts | 117° |
| 2026-05-07 08:39 | 47.74404 | -71.52954 | 36762 ft | 503 kts | 117° |
| 2026-05-07 08:40 | 47.71835 | -71.43245 | 36761 ft | 503 kts | 117° |
| 2026-05-07 08:40 | 47.69268 | -71.33583 | 36772 ft | 503 kts | 117° |
| 2026-05-07 08:41 | 47.66710 | -71.23996 | 36762 ft | 504 kts | 117° |
| 2026-05-07 08:41 | 47.64127 | -71.14351 | 36766 ft | 503 kts | 117° |
| 2026-05-07 08:42 | 47.61524 | -71.04675 | 36758 ft | 504 kts | 117° |
| 2026-05-07 08:42 | 47.58918 | -70.95023 | 36771 ft | 504 kts | 117° |
| 2026-05-07 08:43 | 47.56306 | -70.85392 | 36786 ft | 503 kts | 117° |
| 2026-05-07 08:43 | 47.53711 | -70.75863 | 36779 ft | 504 kts | 117° |
| 2026-05-07 08:44 | 47.51128 | -70.66416 | 36787 ft | 504 kts | 117° |
| 2026-05-07 08:44 | 47.48486 | -70.56790 | 36773 ft | 503 kts | 117° |
| 2026-05-07 08:45 | 47.45848 | -70.47215 | 36772 ft | 503 kts | 117° |
| 2026-05-07 08:45 | 47.43213 | -70.37696 | 36749 ft | 503 kts | 117° |
| 2026-05-07 08:46 | 47.40555 | -70.28128 | 36747 ft | 503 kts | 117° |
| 2026-05-07 08:46 | 47.37900 | -70.18609 | 36751 ft | 503 kts | 117° |
| 2026-05-07 08:47 | 47.35246 | -70.09132 | 36756 ft | 503 kts | 117° |
| 2026-05-07 08:47 | 47.32562 | -69.99584 | 36749 ft | 503 kts | 117° |
| 2026-05-07 08:48 | 47.29934 | -69.90273 | 36751 ft | 503 kts | 117° |
| 2026-05-07 08:48 | 47.27230 | -69.80731 | 36752 ft | 503 kts | 117° |
| 2026-05-07 08:49 | 47.24590 | -69.71451 | 36753 ft | 503 kts | 118° |
| 2026-05-07 08:49 | 47.21890 | -69.61996 | 36757 ft | 503 kts | 118° |
| 2026-05-07 08:50 | 47.19182 | -69.52550 | 36751 ft | 503 kts | 118° |
| 2026-05-07 08:50 | 47.16447 | -69.43045 | 36745 ft | 503 kts | 118° |
| 2026-05-07 08:51 | 47.13710 | -69.33573 | 36746 ft | 503 kts | 118° |
| 2026-05-07 08:51 | 47.10985 | -69.24177 | 36746 ft | 503 kts | 118° |
| 2026-05-07 08:52 | 47.08284 | -69.14902 | 36742 ft | 503 kts | 118° |
| 2026-05-07 08:52 | 47.05541 | -69.05515 | 36752 ft | 503 kts | 118° |
| 2026-05-07 08:53 | 47.02789 | -68.96136 | 36744 ft | 503 kts | 118° |
| 2026-05-07 08:53 | 47.00005 | -68.86681 | 36744 ft | 504 kts | 118° |
| 2026-05-07 08:54 | 46.97303 | -68.77540 | 36731 ft | 503 kts | 118° |
| 2026-05-07 08:54 | 46.94664 | -68.68645 | 36729 ft | 503 kts | 118° |
| 2026-05-07 08:55 | 46.91875 | -68.59279 | 36728 ft | 503 kts | 119° |
| 2026-05-07 08:55 | 46.89096 | -68.49984 | 36733 ft | 503 kts | 119° |
| 2026-05-07 08:56 | 46.86262 | -68.40539 | 36724 ft | 503 kts | 119° |
| 2026-05-07 08:56 | 46.83469 | -68.31263 | 36708 ft | 504 kts | 119° |
| 2026-05-07 08:57 | 46.80657 | -68.21962 | 36706 ft | 504 kts | 119° |
| 2026-05-07 08:57 | 46.77798 | -68.12541 | 36736 ft | 504 kts | 119° |
| 2026-05-07 08:58 | 46.74984 | -68.03302 | 36709 ft | 504 kts | 119° |
| 2026-05-07 08:58 | 46.72185 | -67.94142 | 36724 ft | 504 kts | 120° |
| 2026-05-07 08:59 | 46.69304 | -67.84753 | 36722 ft | 504 kts | 120° |
| 2026-05-07 08:59 | 46.66438 | -67.75446 | 36719 ft | 504 kts | 120° |
| 2026-05-07 09:00 | 46.63618 | -67.66325 | 36723 ft | 505 kts | 120° |
| 2026-05-07 09:00 | 46.60718 | -67.56974 | 36713 ft | 505 kts | 120° |
| 2026-05-07 09:01 | 46.57818 | -67.47661 | 36719 ft | 505 kts | 120° |
| 2026-05-07 09:01 | 46.54931 | -67.38422 | 36703 ft | 505 kts | 120° |
| 2026-05-07 09:02 | 46.52024 | -67.29150 | 36704 ft | 504 kts | 120° |
| 2026-05-07 09:02 | 46.49118 | -67.19918 | 36694 ft | 505 kts | 120° |
| 2026-05-07 09:03 | 46.46206 | -67.10702 | 36699 ft | 505 kts | 120° |
| 2026-05-07 09:03 | 46.43268 | -67.01436 | 36692 ft | 505 kts | 120° |
| 2026-05-07 09:04 | 46.40349 | -66.92263 | 36694 ft | 505 kts | 121° |
| 2026-05-07 09:04 | 46.37391 | -66.83001 | 36685 ft | 505 kts | 121° |
| 2026-05-07 09:05 | 46.34429 | -66.73758 | 36673 ft | 506 kts | 121° |
| 2026-05-07 09:05 | 46.31472 | -66.64565 | 36671 ft | 506 kts | 121° |
| 2026-05-07 09:06 | 46.28523 | -66.55430 | 36673 ft | 506 kts | 121° |
| 2026-05-07 09:06 | 46.25543 | -66.46231 | 36670 ft | 506 kts | 121° |
| 2026-05-07 09:07 | 46.22576 | -66.37105 | 36666 ft | 506 kts | 121° |
| 2026-05-07 09:07 | 46.19588 | -66.27944 | 36666 ft | 506 kts | 121° |
| 2026-05-07 09:08 | 46.16574 | -66.18738 | 36670 ft | 506 kts | 121° |
| 2026-05-07 09:08 | 46.13570 | -66.09595 | 36677 ft | 507 kts | 121° |
| 2026-05-07 09:09 | 46.10542 | -66.00410 | 36671 ft | 507 kts | 122° |
| 2026-05-07 09:09 | 46.07529 | -65.91303 | 36677 ft | 507 kts | 122° |
| 2026-05-07 09:10 | 46.04484 | -65.82125 | 36489 ft | 508 kts | 122° |
| 2026-05-07 09:10 | 46.02919 | -65.77608 | 36158 ft | 505 kts | 126° |
| 2026-05-07 09:10 | 46.01052 | -65.73480 | 35866 ft | 492 kts | 134° |
| 2026-05-07 09:11 | 45.98990 | -65.69579 | 35700 ft | 487 kts | 135° |
| 2026-05-07 09:11 | 45.96934 | -65.65654 | 35423 ft | 492 kts | 133° |
| 2026-05-07 09:11 | 45.95040 | -65.61613 | 35179 ft | 498 kts | 129° |
| 2026-05-07 09:11 | 45.93311 | -65.57542 | 34982 ft | 500 kts | 128° |
| 2026-05-07 09:12 | 45.91520 | -65.53205 | 34728 ft | 501 kts | 128° |
| 2026-05-07 09:12 | 45.89719 | -65.48913 | 34483 ft | 501 kts | 129° |
| 2026-05-07 09:12 | 45.87882 | -65.44664 | 34251 ft | 501 kts | 130° |
| 2026-05-07 09:12 | 45.86018 | -65.40477 | 34016 ft | 502 kts | 130° |
| 2026-05-07 09:13 | 45.84124 | -65.36305 | 33785 ft | 502 kts | 131° |
| 2026-05-07 09:13 | 45.82201 | -65.32120 | 33525 ft | 503 kts | 131° |
| 2026-05-07 09:13 | 45.80933 | -65.29373 | 33338 ft | 503 kts | 131° |
| 2026-05-07 09:13 | 45.78338 | -65.23760 | 32966 ft | 504 kts | 131° |
| 2026-05-07 09:14 | 45.76413 | -65.19595 | 32695 ft | 504 kts | 131° |
| 2026-05-07 09:14 | 45.74498 | -65.15451 | 32462 ft | 505 kts | 131° |
| 2026-05-07 09:14 | 45.73216 | -65.12676 | 32249 ft | 505 kts | 131° |
| 2026-05-07 09:14 | 45.70616 | -65.07054 | 31703 ft | 510 kts | 131° |
| 2026-05-07 09:15 | 45.69343 | -65.04303 | 31458 ft | 510 kts | 131° |
| 2026-05-07 09:15 | 45.67387 | -65.00080 | 31084 ft | 511 kts | 131° |
| 2026-05-07 09:15 | 45.65422 | -64.95843 | 30716 ft | 511 kts | 131° |
| 2026-05-07 09:15 | 45.63520 | -64.91744 | 30346 ft | 510 kts | 131° |
| 2026-05-07 09:16 | 45.61578 | -64.87568 | 29982 ft | 509 kts | 131° |
| 2026-05-07 09:16 | 45.59624 | -64.83374 | 29510 ft | 510 kts | 131° |
| 2026-05-07 09:16 | 45.57717 | -64.79291 | 28926 ft | 512 kts | 131° |
| 2026-05-07 09:16 | 45.55690 | -64.74958 | 28378 ft | 511 kts | 131° |
| 2026-05-07 09:17 | 45.53759 | -64.70832 | 27843 ft | 511 kts | 131° |
| 2026-05-07 09:17 | 45.51772 | -64.66593 | 27315 ft | 510 kts | 131° |
| 2026-05-07 09:17 | 45.49834 | -64.62464 | 26800 ft | 508 kts | 131° |
| 2026-05-07 09:17 | 45.47924 | -64.58400 | 26297 ft | 507 kts | 131° |
| 2026-05-07 09:18 | 45.45967 | -64.54243 | 25798 ft | 505 kts | 131° |
| 2026-05-07 09:18 | 45.44011 | -64.50095 | 25300 ft | 503 kts | 131° |
| 2026-05-07 09:18 | 45.42116 | -64.46084 | 24664 ft | 502 kts | 131° |
| 2026-05-07 09:18 | 45.40173 | -64.41966 | 23998 ft | 491 kts | 131° |
| 2026-05-07 09:19 | 45.38322 | -64.38044 | 23404 ft | 481 kts | 132° |
| 2026-05-07 09:19 | 45.36508 | -64.34207 | 22696 ft | 472 kts | 132° |
| 2026-05-07 09:19 | 45.34681 | -64.30362 | 21970 ft | 467 kts | 132° |
| 2026-05-07 09:19 | 45.32902 | -64.26631 | 21289 ft | 463 kts | 132° |
| 2026-05-07 09:20 | 45.31059 | -64.22770 | 20589 ft | 457 kts | 132° |
| 2026-05-07 09:20 | 45.29301 | -64.19088 | 19877 ft | 454 kts | 132° |
| 2026-05-07 09:20 | 45.27528 | -64.15378 | 19105 ft | 452 kts | 132° |
| 2026-05-07 09:20 | 45.25820 | -64.11805 | 18405 ft | 449 kts | 132° |
| 2026-05-07 09:21 | 45.24119 | -64.08242 | 17656 ft | 447 kts | 131° |
| 2026-05-07 09:21 | 45.22445 | -64.04485 | 16841 ft | 448 kts | 128° |
| 2026-05-07 09:21 | 45.20909 | -64.00695 | 16043 ft | 440 kts | 126° |
| 2026-05-07 09:21 | 45.19720 | -63.97437 | 15383 ft | 432 kts | 123° |
| 2026-05-07 09:22 | 45.18434 | -63.93646 | 14636 ft | 424 kts | 122° |
| 2026-05-07 09:22 | 45.17164 | -63.89919 | 13690 ft | 421 kts | 123° |
| 2026-05-07 09:22 | 45.15883 | -63.86299 | 12677 ft | 418 kts | 124° |
| 2026-05-07 09:22 | 45.14568 | -63.82704 | 11677 ft | 414 kts | 125° |
| 2026-05-07 09:25 | 45.13948 | -63.81038 | 11212 ft | 412 kts | 125° |
| 2026-05-07 09:25 | 45.12740 | -63.77831 | 10346 ft | 408 kts | 126° |
| 2026-05-07 09:25 | 45.11405 | -63.74308 | 9387 ft | 404 kts | 126° |
| 2026-05-07 09:25 | 45.10099 | -63.70854 | 9001 ft | 384 kts | 126° |
| 2026-05-07 09:26 | 45.08888 | -63.67626 | 8868 ft | 359 kts | 126° |
| 2026-05-07 09:26 | 45.07834 | -63.64828 | 8756 ft | 340 kts | 127° |
| 2026-05-07 09:26 | 45.06819 | -63.62142 | 8611 ft | 322 kts | 128° |
| 2026-05-07 09:26 | 45.05908 | -63.59449 | 8815 ft | 302 kts | 116° |
| 2026-05-07 09:27 | 45.05685 | -63.56523 | 8714 ft | 299 kts | 92° |
| 2026-05-07 09:27 | 45.06008 | -63.54099 | 8576 ft | 291 kts | 83° |
| 2026-05-07 09:27 | 45.06956 | -63.48855 | 7706 ft | 284 kts | 89° |
| 2026-05-07 09:28 | 45.06813 | -63.46232 | 7170 ft | 258 kts | 120° |
| 2026-05-07 09:28 | 45.06324 | -63.44659 | 6904 ft | 240 kts | 134° |
| 2026-05-07 09:28 | 45.05373 | -63.42757 | 6413 ft | 230 kts | 140° |
| 2026-05-07 09:28 | 45.04437 | -63.41010 | 5946 ft | 228 kts | 140° |
| 2026-05-07 09:29 | 45.03447 | -63.39367 | 5401 ft | 213 kts | 155° |
| 2026-05-07 09:29 | 45.02180 | -63.38768 | 5081 ft | 189 kts | 186° |
| 2026-05-07 09:29 | 45.00854 | -63.38962 | 5002 ft | 187 kts | 197° |
| 2026-05-07 09:29 | 44.99696 | -63.39589 | 4776 ft | 183 kts | 209° |
| 2026-05-07 09:30 | 44.98623 | -63.40604 | 4246 ft | 183 kts | 214° |
| 2026-05-07 09:30 | 44.97549 | -63.41666 | 3513 ft | 190 kts | 212° |
| 2026-05-07 09:30 | 44.96469 | -63.42723 | 2906 ft | 186 kts | 212° |
| 2026-05-07 09:30 | 44.95447 | -63.43735 | 2384 ft | 180 kts | 212° |
| 2026-05-07 09:31 | 44.94454 | -63.44749 | 1720 ft | 171 kts | 211° |
| 2026-05-07 09:31 | 44.93474 | -63.45755 | 822 ft | 182 kts | 213° |
| 2026-05-07 09:31 | 44.92513 | -63.46782 | 878 ft | 151 kts | 213° |
| 2026-05-07 09:31 | 44.91809 | -63.47548 | 1013 ft | 126 kts | 214° |
| 2026-05-07 09:32 | 44.91137 | -63.48214 | 992 ft | 115 kts | 210° |
| 2026-05-07 09:32 | 44.90432 | -63.48884 | 987 ft | 140 kts | 211° |
| 2026-05-07 09:32 | 44.89649 | -63.49699 | 927 ft | 132 kts | 213° |
| 2026-05-07 09:32 | 44.88940 | -63.50427 | 646 ft | 120 kts | 212° |
| 2026-05-07 09:33 | 44.88284 | -63.51042 | 450 ft | 107 kts | 214° |
| 2026-05-07 09:33 | 44.87791 | -63.51512 | 450 ft | 83 kts | 214° |
| 2026-05-07 09:33 | 44.87431 | -63.51870 | 447 ft | 45 kts | 215° |
| 2026-05-07 09:33 | 44.87234 | -63.52066 | 447 ft | 30 kts | 215° |
| 2026-05-07 09:34 | 44.87069 | -63.52231 | 448 ft | 27 kts | 215° |
| 2026-05-07 09:34 | 44.86921 | -63.52384 | 449 ft | 25 kts | 227° |
| 2026-05-07 09:34 | 44.86944 | -63.52568 | 451 ft | 21 kts | 329° |
| 2026-05-07 09:34 | 44.87082 | -63.52542 | 451 ft | 20 kts | 27° |
| 2026-05-07 09:35 | 44.87194 | -63.52432 | 451 ft | 20 kts | 34° |
| 2026-05-07 09:35 | 44.87305 | -63.52325 | 451 ft | 19 kts | 34° |
| 2026-05-07 09:35 | 44.87429 | -63.52204 | 451 ft | 23 kts | 35° |
| 2026-05-07 09:35 | 44.87560 | -63.52076 | 451 ft | 22 kts | 34° |
| 2026-05-07 09:36 | 44.87684 | -63.51955 | 450 ft | 22 kts | 34° |
| 2026-05-07 09:36 | 44.87801 | -63.51840 | 450 ft | 21 kts | 36° |
| 2026-05-07 09:36 | 44.87920 | -63.51717 | 451 ft | 20 kts | 35° |
| 2026-05-07 09:36 | 44.88032 | -63.51606 | 451 ft | 20 kts | 35° |
| 2026-05-07 09:37 | 44.88145 | -63.51498 | 451 ft | 19 kts | 34° |
| 2026-05-07 09:37 | 44.88239 | -63.51407 | 451 ft | 13 kts | 34° |
| 2026-05-07 09:37 | 44.88310 | -63.51338 | 451 ft | 12 kts | 34° |
| 2026-05-07 09:37 | 44.88384 | -63.51267 | 451 ft | 13 kts | 34° |
| 2026-05-07 09:38 | 44.88468 | -63.51234 | 451 ft | 13 kts | 4° |
| 2026-05-07 09:38 | 44.88554 | -63.51239 | 451 ft | 12 kts | 1° |
| 2026-05-07 09:38 | 44.88638 | -63.51248 | 451 ft | 12 kts | 351° |
| 2026-05-07 09:38 | 44.88717 | -63.51268 | 451 ft | 12 kts | 349° |
| 2026-05-07 09:39 | 44.88792 | -63.51299 | 451 ft | 11 kts | 328° |
| 2026-05-07 09:39 | 44.88812 | -63.51363 | 451 ft | 3 kts | 270° |
| 2026-05-07 09:39 | 44.88809 | -63.51392 | 451 ft | 3 kts | 261° |
| 2026-05-07 09:39 | 44.88806 | -63.51416 | 451 ft | 3 kts | 261° |
| 2026-05-07 09:40 | 44.88804 | -63.51432 | 451 ft | 0 kts | 260° |
| 2026-05-07 09:40 | 44.88804 | -63.51431 | 451 ft | 1 kts | 260° |
| 2026-05-07 09:40 | 44.88805 | -63.51429 | 451 ft | 0 kts | 260° |